• Join FlightAware (Why Join?)
  • Login
  • US Flag 
02:40AM EDT


 

Airport Tracker/Info


-or-


 

Live Flight TrackerFlight Track Log ✈ BJS444 ✈ 23-Apr-2013 ✈ KDEN - KADS

Flight Track Log - Related Links

Times and Time Zones

All times are in EDT time to prevent confusion due to time zone crossing. See the BJS444 flight status page for this flight to view local times or setup timezone preferences in your user account.

Time Position Orientation Groundspeed Altitude Reporting Facility
EDT Latitude Longitude Course Direction KTS MPH feet Rate Location/Type
07:35PM 39.8333 -104.7500 163° South 204 235 7,900  Level Denver TRACON
07:36PM 39.8167 -104.8333 255° West 249 287 10,000 2,400 Climbing Denver TRACON
07:37PM 39.8083 -104.8728 255° West 258 297 11,300 4,320 Climbing Denver Center
07:38PM 39.7375 -104.9164 205° Southwest 289 333 16,300 4,200 Climbing Denver Center
07:39PM 39.6519 -104.8956 169° South 321 369 20,100 3,120 Climbing Denver Center
07:40PM 39.5422 -104.8678 169° South 380 437 22,800 2,820 Climbing Denver Center
07:41PM 39.3695 -104.0421 163° South  Level Estimated
07:41PM 39.4306 -104.8378 168° South 399 459 26,000  Level Denver Center
07:42PM 39.3333 -104.7531 146° Southeast 430 495 28,500 2,040 Climbing Denver Center
07:43PM 39.2417 -104.6308 134° Southeast 471 542 30,300 1,980 Climbing Denver Center
07:44PM 39.1517 -104.5100 134° Southeast 466 536 32,700 1,800 Climbing Denver Center
07:45PM 39.0608 -104.3883 134° Southeast 467 537 34,100 1,200 Climbing Denver Center
07:46PM 38.9508 -104.2419 134° Southeast 482 555 35,300 1,140 Climbing Denver Center
07:47PM 38.8536 -104.1175 135° Southeast 489 563 36,500 1,080 Climbing Denver Center
07:48PM 38.7572 -103.9917 134° Southeast 488 562 37,600 960 Climbing Denver Center
07:49PM 38.6669 -103.8739 134° Southeast 483 556 38,500 780 Climbing Denver Center
07:50PM 38.5606 -103.7350 134° Southeast 486 559 39,300 720 Climbing Denver Center
07:51PM 38.4675 -103.6144 135° Southeast 495 570 40,000 720 Climbing Denver Center
07:52PM 38.3586 -103.4750 135° Southeast 494 568 40,900 480 Climbing Denver Center
07:53PM 38.2667 -103.3575 135° Southeast 489 563 41,000  Climbing Denver Center
07:54PM 38.1558 -103.2147 135° Southeast 504 580 41,000  Level Denver Center
07:55PM 38.0658 -103.1003 135° Southeast 504 580 41,000  Level Denver Center
07:56PM 37.9633 -102.9725 135° Southeast 508 585 41,000  Level Denver Center
07:57PM 37.8522 -102.8311 135° Southeast 507 583 41,000  Level Denver Center
07:58PM 37.7550 -102.7100 135° Southeast 510 587 41,000  Level Denver Center
07:59PM 37.6442 -102.5697 135° Southeast 504 580 41,000  Level Denver Center
08:00PM 37.5406 -102.4406 135° Southeast 505 581 41,000  Level Denver Center
08:01PM 37.4772 -102.3625 136° Southeast 501 577 41,000  Level Albuquerque Center
08:02PM 37.3831 -102.2681 141° Southeast 492 566 41,000  Level Albuquerque Center
08:03PM 37.2578 -102.1703 148° Southeast 476 548 41,000  Level Albuquerque Center
08:04PM 37.1461 -102.0828 148° Southeast 471 542 41,000  Level Albuquerque Center
08:05PM 37.0414 -102.0008 148° Southeast 465 535 41,000  Level Albuquerque Center
08:06PM 36.9233 -101.8925 144° Southeast 475 547 41,000  Level Albuquerque Center
08:07PM 36.8325 -101.7761 134° Southeast 488 562 41,000  Level Albuquerque Center
08:08PM 36.7258 -101.6414 135° Southeast 490 564 41,000  Level Albuquerque Center
08:09PM 36.6325 -101.5239 135° Southeast 495 570 41,000  Level Albuquerque Center
08:10PM 36.5242 -101.3856 134° Southeast 499 574 41,000  Level Albuquerque Center
08:11PM 36.4314 -101.2692 135° Southeast 498 573 41,000  Level Albuquerque Center
08:12PM 36.3211 -101.1325 135° Southeast 501 577 41,000  Level Albuquerque Center
08:13PM 36.2278 -101.0136 134° Southeast 510 587 41,000  Level Albuquerque Center
08:14PM 36.1289 -100.8911 135° Southeast 507 583 41,000  Level Albuquerque Center
08:15PM 36.0356 -100.7747 135° Southeast 487 560 41,000  Level Albuquerque Center
08:16PM 35.9381 -100.6536 135° Southeast 490 564 41,000  Level Albuquerque Center
08:17PM 35.8392 -100.5342 136° Southeast 496 571 41,000  Level Albuquerque Center
08:18PM 35.7236 -100.3906 135° Southeast 493 567 41,000  Level Albuquerque Center
08:19PM 35.6244 -100.2686 135° Southeast 499 574 41,000  Level Albuquerque Center
08:20PM 35.5242 -100.1472 135° Southeast 504 580 41,000  Level Albuquerque Center
08:22PM 35.4272 -100.0303 135° Southeast 497 572 41,000  Level Albuquerque Center
08:23PM 35.3322 -99.9161 136° Southeast 485 558 41,000  Level Albuquerque Center
08:24PM 35.2375 -99.8028 136° Southeast 480 552 41,000  Level Albuquerque Center
08:25PM 35.1408 -99.6872 136° Southeast 483 556 41,000  Level Albuquerque Center
08:25PM 35.0433 -99.5767 137° Southeast 485 558 41,000  Level Fort Worth Center
08:26PM 34.9494 -99.4578 134° Southeast 485 558 41,000  Level Fort Worth Center
08:27PM 34.8575 -99.3342 132° Southeast 485 558 41,000  Level Fort Worth Center
08:28PM 34.7633 -99.2106 133° Southeast 485 558 41,000  Level Fort Worth Center
08:29PM 34.6711 -99.0850 132° Southeast 490 564 41,000  Level Fort Worth Center
08:30PM 34.5911 -98.9775 132° Southeast 490 564 41,000 -480 Level Fort Worth Center
08:31PM 34.4989 -98.8522 132° Southeast 495 570 40,100 -900 Descending Fort Worth Center
08:32PM 34.4042 -98.7250 132° Southeast 501 577 39,200 -900 Descending Fort Worth Center
08:33PM 34.3033 -98.5925 133° Southeast 501 577 38,400 -1,560 Descending Fort Worth Center
08:34PM 34.2189 -98.4783 132° Southeast 501 577 36,100 -2,400 Descending Fort Worth Center
08:35PM 34.1281 -98.3619 133° Southeast 495 570 33,700 -2,640 Descending Fort Worth Center
08:36PM 34.0411 -98.2381 130° Southeast 490 564 30,900 -3,420 Descending Fort Worth Center
08:37PM 33.9500 -98.1194 133° Southeast 485 558 26,900 -4,080 Descending Fort Worth Center
08:38PM 33.8589 -97.9964 132° Southeast 468 539 22,800 -4,020 Descending Fort Worth Center
08:39PM 33.7842 -97.9008 133° Southeast 438 504 18,900 -3,300 Descending Fort Worth Center
08:40PM 33.7094 -97.8031 133° Southeast 412 474 16,200 -2,700 Descending Fort Worth Center
08:41PM 33.6283 -97.6978 133° Southeast 392 451 13,600 -2,280 Descending Fort Worth Center
08:42PM 33.5514 -97.5978 133° Southeast 392 451 11,700 -1,620 Descending Fort Worth Center
08:43PM 33.4803 -97.5106 134° Southeast 386 444 10,400 -1,380 Descending Fort Worth Center
08:44PM 33.4200 -97.4383 135° Southeast 328 377 9,000 -1,440 Descending Fort Worth Center
08:45PM 33.3697 -97.3711 132° Southeast 289 333 7,600 -1,560 Descending Fort Worth Center
08:46PM 33.3719 -97.2742 88° East 262 302 5,900 -1,320 Descending Fort Worth Center
08:47PM 33.3550 -97.1897 103° East 269 310 5,000 -960 Descending Fort Worth Center
08:48PM 33.3131 -97.1150 124° Southeast 264 304 4,000 -900 Descending Fort Worth Center
08:49PM 33.2628 -97.0483 132° Southeast 271 312 3,300 -540 Descending Fort Worth Center
08:50PM 33.2231 -96.9914 130° Southeast 260 299 3,000 -180 Descending Fort Worth Center
08:51PM 33.1728 -96.9219 131° Southeast 254 292 3,000  Level Fort Worth Center
08:52PM 33.1306 -96.8603 129° Southeast 249 287 3,000  Level Fort Worth Center
08:53PM 33.0950 -96.8108 131° Southeast 244 281 3,000  Level Fort Worth Center
08:54PM 33.0667 -96.7833 141° Southeast 214 246 3,000  Level Dallas / Fort Worth TRACON
08:55PM 33.0167 -96.7667 164° South 206 237 3,000  Level Dallas / Fort Worth TRACON
08:56PM 32.9667 -96.7333 151° Southeast 206 237 3,000  Level Dallas / Fort Worth TRACON
08:57PM 32.9167 -96.7167 164° South 208 239 3,000  Level Dallas / Fort Worth TRACON
08:58PM 32.8667 -96.6833 151° Southeast 184 212 3,000  Level Dallas / Fort Worth TRACON
08:59PM 32.8333 -96.7000 203° Southwest 183 211 3,000  Level Dallas / Fort Worth TRACON
09:00PM 32.8333 -96.7667 270° West 155 178 3,000  Level Dallas / Fort Worth TRACON
09:01PM 32.8500 -96.7833 320° Northwest 148 170 3,000 -480 Level Dallas / Fort Worth TRACON
09:02PM 32.9000 -96.8000 344° North 142 163 2,200 -780 Descending Dallas / Fort Worth TRACON
09:03PM 32.9167 -96.8167 320° Northwest 108 124 1,500 -720 Descending Dallas / Fort Worth TRACON